首页
METAR-TAF:

METAR-TAF

机场 :

伊萨卡, 紐約州, 美国

纬度: 42-29N, 经度: 076-27W, 海拔: 335米

当前天气观测

该预报发布于46分钟前的18:56 UTC
风速10节,风向西北
温度 24°C
湿度 36%
气压 1027 hPa
能見度: 16.1公里
天空无云

METAR: KITH 181856Z 31010KT 10SM CLR 24/08 A3032 RMK AO2 SLP264 T02440078 PNO $

时间: 15:42 (19:42 UTC)

预报

该预报发布于2小时和20分钟前的17:22 UTC
预报有效从18日的 18点(UTC)到 19日的 18点(UTC)
风速11节,风向西北
能見度: 10公里
少量云层高于6000英尺
从 18日的 2200点(UTC)
风速5节,风向西北
能見度: 10公里
少量云层高于20000英尺

TAF: KITH 181722Z 1818/1918 31011KT P6SM FEW060 FM182200 32005KT P6SM FEW200

超过4000个机场的气象观测和天气预报(METAR&TAF报告)。

可查询的气象台以黄色和红色小点在地图上表示。

将鼠标移到小点上方,可查看气象台名称。

然后点击查看天气观测和预报。

如需切换地图:点击带黑十字的绿色按钮放大地图;点击带横线的绿色按钮缩小地图;或者点击绿色箭头查看邻近地区的地图。


METAR-TAF: